This is the latest recevied weather packets stored in our database for station/object WV8MT. If no packets are shown the sender has not sent any weather packets the latest 10 day(s).
| Time | Temp. | Humidity | Pressure | Rain* | Wind** | Luminosity | Snow |
|---|---|---|---|---|---|---|---|
| 1777723227 | 6.11° C | 82% | 1018.3 hPa | 0 mm | - | - | - |
| 1777722653 | 5° C | 86% | 1018.3 hPa | 0 mm | - | - | - |
| 1777721421 | 3.89° C | 95% | 1018.5 hPa | 0 mm | - | - | - |
| 1777714829 | 3.33° C | 93% | 1018.7 hPa | 0 mm | - | - | - |
| 1777714215 | 3.89° C | 92% | 1018.8 hPa | 0 mm | - | - | - |
| 1777710641 | 5° C | 84% | 1018.4 hPa | 0 mm | - | - | - |
| 1777708815 | 5° C | 84% | 1018.3 hPa | 0 mm | - | - | - |
| 1777708219 | 5.56° C | 83% | 1018.3 hPa | 0 mm | - | - | - |
| 1777707015 | 6.11° C | 78% | 1018.1 hPa | 0 mm | - | - | - |
| 1777706433 | 5° C | 84% | 1018 hPa | 0 mm | - | - | - |
| 1777703415 | 6.11° C | 82% | 1018 hPa | 0 mm | - | - | - |
| 1777702819 | 6.67° C | 81% | 1018 hPa | 0 mm | - | - | - |
| 1777698015 | 8.33° C | 75% | 1018.2 hPa | 0 mm | - | - | - |
| 1777696247 | 8.33° C | 72% | 1018.2 hPa | 0 mm | - | - | - |
| 1777694441 | 9.44° C | 68% | 1018 hPa | 0 mm | - | - | - |
| 1777692019 | 9.44° C | 69% | 1018 hPa | 0 mm | - | - | - |
| 1777688426 | 10.56° C | 69% | 1017.3 hPa | 0 mm | - | - | - |
| 1777686043 | 12.78° C | 65% | 1016.7 hPa | 0 mm | - | - | - |
| 1777684831 | 13.33° C | 62% | 1016.4 hPa | 0 mm | - | - | - |
| 1777681815 | 14.44° C | 51% | 1014.8 hPa | 0 mm | - | - | - |
| 1777678817 | 16.67° C | 42% | 1013.9 hPa | 0 mm | - | - | - |
| 1777672220 | 17.22° C | 45% | 1013.3 hPa | 0 mm | - | - | - |
| 1777666846 | 17.78° C | 43% | 1013.3 hPa | 0 mm | - | - | - |
| 1777664424 | 18.89° C | 41% | - | 0 mm | - | - | - |
| 1777661427 | 17.78° C | 40% | 1014.8 hPa | 0 mm | - | - | - |
* Rain latest hour (hover to see other rain measurements)
** Current wind speed in m/s (hover to see current wind gust speed)